KRIC

Richmond International Airport

Richmond, Virginia, USA
METAR KRIC 140654Z 29003KT 5SM R34/6000VP6000FT BR FEW100 SCT300 M01/M02 A3038 RMK AO2 SLP293 T10061022
Observed Flight Rules
Dec-14 @ 06:54 UTC (59 minutes ago) Marginal Visual Flight Rules
Wind Visibility Clouds Conditions
290° at 3 knots 5 miles
  • Few at 10,000' AGL
  • Scattered at 30,000' AGL
  • Mist
Temperatures Readings
Current -1°C / 30°F
Dewpoint -2°C / 28°F
Humidity 93%
Altimeter 30.38" Hg
Pressure 1029.3 hPa
Elevation 50
METAR KRIC 140654Z 29003KT 5SM R34/6000VP6000FT BR FEW100 SCT300 M01/M02 A3038 RMK AO2 SLP293 T10061022
Observed Flight Rules
Dec-14 @ 06:54 UTC
(59 minutes ago)
MVFR
Wind Visibility
290° at 3 knots 5 miles
Clouds
  • Few at 10,000' AGL
  • Scattered at 30,000' AGL
Conditions
  • Mist
Temperature Dewpoint
-1°C / 30°F -2°C / 28°F
Humidity Altimeter Pressure
93% 30.38" Hg 1029.3 hPa